createdAt,value
2023-02-02T00:00:29.055Z,101640.22
2023-02-02T00:01:32.830Z,101634.06
2023-02-02T00:02:55.481Z,101638.31
2023-02-02T00:04:00.426Z,101636.72
2023-02-02T00:05:02.958Z,101644.66
2023-02-02T00:06:05.954Z,101637.56
2023-02-02T00:07:08.705Z,101639.38
2023-02-02T00:08:11.393Z,101641.09
2023-02-02T00:09:15.093Z,101641.09
2023-02-02T00:10:18.359Z,101638.31
2023-02-02T00:11:20.112Z,101635.69
2023-02-02T00:12:22.599Z,101636.66
2023-02-02T00:13:24.149Z,101636.66
2023-02-02T00:14:26.979Z,101641.09
2023-02-02T00:15:28.513Z,101636.72
2023-02-02T00:16:40.207Z,101641.16
2023-02-02T00:17:42.694Z,101637.66
2023-02-02T00:18:44.227Z,101635.13
2023-02-02T00:19:48.869Z,101641.25
2023-02-02T00:20:50.477Z,101641.34
2023-02-02T00:21:53.348Z,101626.44
2023-02-02T00:22:55.344Z,101631.72
2023-02-02T00:23:58.292Z,101628.28
2023-02-02T00:24:59.823Z,101630.94
2023-02-02T00:26:02.328Z,101626.50
2023-02-02T00:27:04.980Z,101626.50
2023-02-02T00:28:06.835Z,101624.72
2023-02-02T00:29:15.130Z,101627.25
2023-02-02T00:30:16.954Z,101624.72
2023-02-02T00:31:19.509Z,101630.75
2023-02-02T00:32:21.988Z,101624.53
2023-02-02T00:33:23.496Z,101629.81
2023-02-02T00:34:26.565Z,101624.53
2023-02-02T00:35:30.051Z,101615.66
2023-02-02T00:36:32.567Z,101620.97
2023-02-02T00:37:34.493Z,101617.44
2023-02-02T00:38:37.982Z,101617.53
2023-02-02T00:39:40.480Z,101619.25
2023-02-02T00:40:42.399Z,101623.59
2023-02-02T00:41:45.208Z,101614.81
2023-02-02T00:42:50.276Z,101618.38
2023-02-02T00:44:06.762Z,101616.66
2023-02-02T00:45:17.228Z,101623.78
2023-02-02T00:46:18.941Z,101624.72
2023-02-02T00:47:20.493Z,101624.72
2023-02-02T00:48:22.982Z,101624.72
2023-02-02T00:49:24.520Z,101625.56
2023-02-02T00:50:27.401Z,101624.72
2023-02-02T00:51:30.297Z,101621.13
2023-02-02T00:52:32.798Z,101625.56
2023-02-02T00:53:34.520Z,101611.56
2023-02-02T00:54:37.010Z,101623.09
2023-02-02T00:55:39.087Z,101616.00
2023-02-02T00:56:43.441Z,101614.31
2023-02-02T00:57:45.280Z,101621.28
2023-02-02T00:58:47.773Z,101626.69
2023-02-02T00:59:49.345Z,101628.47
2023-02-02T01:00:52.794Z,101623.19
2023-02-02T01:01:54.415Z,101628.47
2023-02-02T01:02:57.844Z,101633.75
2023-02-02T01:03:59.834Z,101624.03
2023-02-02T01:05:04.939Z,101635.47
2023-02-02T01:06:06.572Z,101632.72
2023-02-02T01:07:10.412Z,101642.44
2023-02-02T01:08:11.959Z,101635.47
2023-02-02T01:09:14.530Z,101636.34
2023-02-02T01:10:17.588Z,101640.66
2023-02-02T01:11:20.697Z,101638.88
2023-02-02T01:12:22.215Z,101640.66
2023-02-02T01:13:24.885Z,101640.59
2023-02-02T01:14:26.632Z,101651.16
2023-02-02T01:15:30.462Z,101640.59
2023-02-02T01:16:32.353Z,101644.94
2023-02-02T01:17:35.227Z,101642.31
2023-02-02T01:18:37.809Z,101643.97
2023-02-02T01:19:40.780Z,101647.59
2023-02-02T01:20:42.688Z,101646.63
2023-02-02T01:21:45.193Z,101654.56
2023-02-02T01:22:48.115Z,101659.00
2023-02-02T01:23:50.925Z,101659.00
2023-02-02T01:24:52.480Z,101649.28
2023-02-02T01:25:55.770Z,101649.28
2023-02-02T01:26:57.335Z,101646.63
2023-02-02T01:28:00.244Z,101648.41
2023-02-02T01:29:01.800Z,101650.13
2023-02-02T01:30:04.876Z,101649.28
2023-02-02T01:31:08.763Z,101654.56
2023-02-02T01:32:11.568Z,101654.56
2023-02-02T01:33:13.291Z,101641.34
2023-02-02T01:34:16.113Z,101654.56
2023-02-02T01:35:17.671Z,101648.41
2023-02-02T01:36:23.444Z,101648.41
2023-02-02T01:37:25.036Z,101659.00
2023-02-02T01:38:28.825Z,101649.28
2023-02-02T01:39:32.687Z,101658.19
2023-02-02T01:40:35.100Z,101644.94
2023-02-02T01:41:37.610Z,101650.25
2023-02-02T01:42:39.370Z,101659.84
2023-02-02T01:43:55.962Z,101662.50
2023-02-02T01:45:16.880Z,101661.63
2023-02-02T01:46:21.602Z,101661.63
2023-02-02T01:47:26.935Z,101659.00
2023-02-02T01:48:41.411Z,101661.75
2023-02-02T01:49:43.038Z,101654.75
2023-02-02T01:50:45.603Z,101663.53
2023-02-02T01:51:49.935Z,101663.53
2023-02-02T01:52:55.519Z,101656.47
2023-02-02T01:53:59.780Z,101660.88
2023-02-02T01:55:08.256Z,101667.97
2023-02-02T01:56:15.494Z,101665.31
2023-02-02T01:57:26.458Z,101666.19
2023-02-02T01:58:30.175Z,101667.03
2023-02-02T01:59:33.760Z,101671.41
2023-02-02T02:00:36.076Z,101664.41
2023-02-02T02:01:38.586Z,101671.41
2023-02-02T02:02:44.168Z,101673.09
2023-02-02T02:03:46.767Z,101665.16
2023-02-02T02:04:50.253Z,101665.16
2023-02-02T02:05:55.661Z,101672.16
2023-02-02T02:06:58.070Z,101666.84
2023-02-02T02:08:10.160Z,101663.28
2023-02-02T02:09:14.089Z,101665.94
2023-02-02T02:10:16.877Z,101663.28
2023-02-02T02:11:20.074Z,101660.63
2023-02-02T02:12:21.876Z,101666.84
2023-02-02T02:13:47.942Z,101658.00
2023-02-02T02:15:09.841Z,101665.94
2023-02-02T02:16:19.885Z,101658.94
2023-02-02T02:17:41.013Z,101650.97
2023-02-02T02:18:51.440Z,101650.97
2023-02-02T02:20:52.903Z,101643.97
2023-02-02T02:22:18.276Z,101645.94
2023-02-02T02:24:26.299Z,101638.19
2023-02-02T02:26:12.711Z,101646.25
2023-02-02T02:27:41.013Z,101648.09
2023-02-02T02:29:03.440Z,101644.59
2023-02-02T02:30:34.561Z,101641.13
2023-02-02T02:32:05.741Z,101644.69
2023-02-02T02:33:12.693Z,101648.28
2023-02-02T02:34:20.561Z,101646.59
2023-02-02T02:35:32.518Z,101646.50
2023-02-02T02:36:42.734Z,101646.50
2023-02-02T02:37:51.116Z,101650.00
2023-02-02T02:39:00.534Z,101651.78
2023-02-02T02:40:09.118Z,101655.28
2023-02-02T02:41:19.260Z,101646.41
2023-02-02T02:42:25.352Z,101650.00
2023-02-02T02:43:31.078Z,101654.34
2023-02-02T02:44:34.648Z,101652.53
2023-02-02T02:45:38.410Z,101649.13
2023-02-02T02:46:40.934Z,101642.06
2023-02-02T02:47:44.009Z,101649.13
2023-02-02T02:48:46.959Z,101648.28
2023-02-02T02:49:49.428Z,101647.53
2023-02-02T02:50:52.043Z,101650.16
2023-02-02T02:51:55.376Z,101645.75
2023-02-02T02:53:04.243Z,101650.16
2023-02-02T02:54:06.441Z,101651.88
2023-02-02T02:55:11.739Z,101646.66
2023-02-02T02:56:22.877Z,101653.56
2023-02-02T02:57:53.879Z,101658.00
2023-02-02T02:59:03.592Z,101653.56
2023-02-02T03:00:22.083Z,101653.69
2023-02-02T03:01:38.103Z,101664.31
2023-02-02T03:02:46.585Z,101657.31
2023-02-02T03:04:09.819Z,101659.22
2023-02-02T03:05:24.851Z,101667.16
2023-02-02T03:06:35.909Z,101663.75
2023-02-02T03:07:42.674Z,101666.41
2023-02-02T03:08:49.465Z,101663.75
2023-02-02T03:09:52.967Z,101662.03
2023-02-02T03:10:57.604Z,101669.97
2023-02-02T03:11:59.736Z,101662.91
2023-02-02T03:13:02.612Z,101654.09
2023-02-02T03:14:04.707Z,101659.38
2023-02-02T03:15:08.047Z,101658.53
2023-02-02T03:16:10.103Z,101662.03
2023-02-02T03:17:12.648Z,101653.19
2023-02-02T03:18:17.018Z,101655.81
2023-02-02T03:19:20.923Z,101655.81
2023-02-02T03:20:22.515Z,101651.38
2023-02-02T03:21:25.028Z,101656.69
2023-02-02T03:22:26.569Z,101657.50
2023-02-02T03:23:29.410Z,101668.00
2023-02-02T03:24:30.933Z,101660.06
2023-02-02T03:25:33.663Z,101656.50
2023-02-02T03:26:35.891Z,101657.31
2023-02-02T03:27:39.180Z,101652.88
2023-02-02T03:28:41.941Z,101652.88
2023-02-02T03:29:43.585Z,101666.97
2023-02-02T03:30:47.767Z,101660.75
2023-02-02T03:31:50.110Z,101660.75
2023-02-02T03:32:53.795Z,101659.03
2023-02-02T03:33:55.752Z,101664.31
2023-02-02T03:34:59.577Z,101660.75
2023-02-02T03:36:01.091Z,101664.31
2023-02-02T03:37:03.593Z,101653.75
2023-02-02T03:38:05.223Z,101661.69
2023-02-02T03:39:07.730Z,101659.03
2023-02-02T03:40:10.638Z,101649.38
2023-02-02T03:41:13.186Z,101656.50
2023-02-02T03:42:14.745Z,101666.22
2023-02-02T03:43:21.466Z,101660.94
2023-02-02T03:44:24.067Z,101661.97
2023-02-02T03:45:27.287Z,101668.06
2023-02-02T03:46:29.905Z,101664.50
2023-02-02T03:47:31.812Z,101673.38
2023-02-02T03:48:36.778Z,101659.22
2023-02-02T03:49:38.372Z,101664.59
2023-02-02T03:50:42.317Z,101658.47
2023-02-02T03:51:44.260Z,101662.97
2023-02-02T03:52:46.827Z,101656.81
2023-02-02T03:53:48.385Z,101663.94
2023-02-02T03:54:51.107Z,101654.28
2023-02-02T03:55:52.616Z,101656.06
2023-02-02T03:56:55.113Z,101657.84
2023-02-02T03:57:56.640Z,101664.84
2023-02-02T03:58:59.123Z,101662.22
2023-02-02T04:00:00.644Z,101664.00
2023-02-02T04:01:05.012Z,101657.84
2023-02-02T04:02:06.518Z,101661.28
2023-02-02T04:03:09.271Z,101669.22
2023-02-02T04:04:10.908Z,101662.09
2023-02-02T04:05:13.435Z,101667.31
2023-02-02T04:06:16.327Z,101667.41
2023-02-02T04:07:18.952Z,101669.13
2023-02-02T04:08:20.723Z,101664.69
2023-02-02T04:09:23.948Z,101667.25
2023-02-02T04:10:25.495Z,101672.53
2023-02-02T04:11:28.155Z,101673.38
2023-02-02T04:12:29.801Z,101670.72
2023-02-02T04:13:32.326Z,101675.94
2023-02-02T04:14:33.862Z,101665.38
2023-02-02T04:15:36.578Z,101672.44
2023-02-02T04:16:38.141Z,101668.06
2023-02-02T04:17:40.620Z,101674.16
2023-02-02T04:18:42.202Z,101671.50
2023-02-02T04:19:44.715Z,101679.44
2023-02-02T04:20:46.244Z,101673.19
2023-02-02T04:21:50.130Z,101675.75
2023-02-02T04:22:51.697Z,101672.25
2023-02-02T04:23:54.625Z,101678.34
2023-02-02T04:24:56.301Z,101667.75
2023-02-02T04:25:59.360Z,101673.03
2023-02-02T04:27:00.895Z,101675.69
2023-02-02T04:28:03.435Z,101680.00
2023-02-02T04:29:05.043Z,101678.22
2023-02-02T04:30:08.882Z,101682.59
2023-02-02T04:31:10.503Z,101683.44
2023-02-02T04:32:13.160Z,101689.56
2023-02-02T04:33:14.715Z,101694.03
2023-02-02T04:34:17.924Z,101686.09
2023-02-02T04:35:19.897Z,101690.41
2023-02-02T04:36:22.380Z,101692.13
2023-02-02T04:37:25.220Z,101702.72
2023-02-02T04:38:27.708Z,101697.44
2023-02-02T04:39:31.000Z,101691.19
2023-02-02T04:40:33.483Z,101688.56
2023-02-02T04:41:35.103Z,101692.06
2023-02-02T04:42:37.596Z,101699.88
2023-02-02T04:43:39.181Z,101701.69
2023-02-02T04:44:41.801Z,101698.19
2023-02-02T04:45:43.525Z,101695.53
2023-02-02T04:46:46.464Z,101697.34
2023-02-02T04:47:48.037Z,101699.03
2023-02-02T04:48:50.576Z,101695.53
2023-02-02T04:49:52.091Z,101685.81
2023-02-02T04:50:59.500Z,101697.25
2023-02-02T04:52:01.015Z,101701.59
2023-02-02T04:53:05.659Z,101701.59
2023-02-02T04:54:07.851Z,101692.81
2023-02-02T04:55:10.701Z,101698.97
2023-02-02T04:56:14.548Z,101696.22
2023-02-02T04:57:17.584Z,101698.84
2023-02-02T04:58:19.501Z,101693.56
2023-02-02T04:59:22.020Z,101690.91
2023-02-02T05:00:24.798Z,101696.22
2023-02-02T05:01:30.688Z,101705.00
2023-02-02T05:02:36.575Z,101691.78
2023-02-02T05:03:38.567Z,101697.06
2023-02-02T05:04:41.092Z,101694.44
2023-02-02T05:05:42.634Z,101704.25
2023-02-02T05:06:45.121Z,101705.94
2023-02-02T05:07:46.725Z,101705.09
2023-02-02T05:08:50.852Z,101706.91
2023-02-02T05:09:52.367Z,101704.25
2023-02-02T05:10:55.536Z,101708.69
2023-02-02T05:11:57.438Z,101712.19
2023-02-02T05:13:07.853Z,101709.53
2023-02-02T05:14:10.113Z,101702.53
2023-02-02T05:15:13.037Z,101709.53
2023-02-02T05:16:15.162Z,101701.69
2023-02-02T05:17:17.842Z,101702.53
2023-02-02T05:18:19.460Z,101702.53
2023-02-02T05:19:22.032Z,101697.25
2023-02-02T05:20:23.684Z,101696.38
2023-02-02T05:21:26.326Z,101697.25
2023-02-02T05:22:27.870Z,101698.09
2023-02-02T05:23:31.498Z,101693.66
2023-02-02T05:24:34.447Z,101690.06
2023-02-02T05:25:36.945Z,101684.78
2023-02-02T05:26:38.645Z,101683.84
2023-02-02T05:27:43.959Z,101678.56
2023-02-02T05:28:45.546Z,101676.75
2023-02-02T05:29:48.424Z,101680.25
2023-02-02T05:30:50.425Z,101698.78
2023-02-02T05:31:53.029Z,101688.19
2023-02-02T05:32:54.559Z,101689.13
2023-02-02T05:33:57.103Z,101679.47
2023-02-02T05:34:58.628Z,101682.06
2023-02-02T05:36:01.215Z,101682.91
2023-02-02T05:37:03.471Z,101682.97
2023-02-02T05:38:06.014Z,101683.84
2023-02-02T05:39:07.563Z,101682.91
2023-02-02T05:40:12.627Z,101674.13
2023-02-02T05:41:14.144Z,101677.63
2023-02-02T05:42:16.764Z,101660.88
2023-02-02T05:43:19.372Z,101672.31
2023-02-02T05:44:23.427Z,101672.22
2023-02-02T05:45:25.302Z,101675.72
2023-02-02T05:46:28.193Z,101673.94
2023-02-02T05:47:29.791Z,101674.78
2023-02-02T05:48:32.437Z,101677.44
2023-02-02T05:49:33.968Z,101676.50
2023-02-02T05:50:36.596Z,101687.09
2023-02-02T05:51:42.616Z,101688.78
2023-02-02T05:52:46.522Z,101695.03
2023-02-02T05:53:48.149Z,101688.78
2023-02-02T05:54:50.841Z,101685.28
2023-02-02T05:55:56.900Z,101691.41
2023-02-02T05:57:01.141Z,101695.03
2023-02-02T05:58:03.569Z,101704.75
2023-02-02T05:59:07.382Z,101695.03
2023-02-02T06:00:10.683Z,101705.63
2023-02-02T06:01:19.711Z,101702.09
2023-02-02T06:02:21.384Z,101705.63
2023-02-02T06:03:24.012Z,101710.91
2023-02-02T06:04:25.722Z,101708.25
2023-02-02T06:05:28.234Z,101714.47
2023-02-02T06:06:29.802Z,101710.97
2023-02-02T06:07:32.307Z,101711.09
2023-02-02T06:08:34.332Z,101714.56
2023-02-02T06:09:36.878Z,101712.75
2023-02-02T06:10:48.481Z,101717.19
2023-02-02T06:11:52.635Z,101712.75
2023-02-02T06:12:54.458Z,101718.06
2023-02-02T06:13:57.442Z,101723.34
2023-02-02T06:14:59.010Z,101717.97
2023-02-02T06:16:01.567Z,101723.28
2023-02-02T06:17:03.167Z,101721.47
2023-02-02T06:18:08.251Z,101725.81
2023-02-02T06:19:09.906Z,101714.38
2023-02-02T06:20:13.799Z,101724.13
2023-02-02T06:21:15.362Z,101721.47
2023-02-02T06:22:17.856Z,101731.09
2023-02-02T06:23:19.413Z,101725.81
2023-02-02T06:24:21.947Z,101723.16
2023-02-02T06:25:24.001Z,101731.03
2023-02-02T06:26:27.361Z,101728.38
2023-02-02T06:27:30.332Z,101725.75
2023-02-02T06:28:33.147Z,101724.88
2023-02-02T06:29:34.716Z,101730.19
2023-02-02T06:30:37.255Z,101725.75
2023-02-02T06:31:39.394Z,101736.31
2023-02-02T06:32:42.004Z,101724.88
2023-02-02T06:33:43.757Z,101720.44
2023-02-02T06:34:46.395Z,101726.59
2023-02-02T06:35:47.946Z,101724.81
2023-02-02T06:36:50.989Z,101722.25
2023-02-02T06:37:52.775Z,101728.47
2023-02-02T06:38:57.824Z,101722.31
2023-02-02T06:39:59.382Z,101730.34
2023-02-02T06:41:02.716Z,101728.63
2023-02-02T06:42:19.262Z,101730.53
2023-02-02T06:43:24.978Z,101734.09
2023-02-02T06:44:27.482Z,101735.03
2023-02-02T06:45:31.046Z,101731.56
2023-02-02T06:46:43.852Z,101733.34
2023-02-02T06:47:45.603Z,101733.41
2023-02-02T06:48:48.455Z,101737.84
2023-02-02T06:49:51.067Z,101738.72
2023-02-02T06:50:53.869Z,101744.88
2023-02-02T06:51:56.495Z,101733.34
2023-02-02T06:52:58.192Z,101750.16
2023-02-02T06:54:03.147Z,101750.16
2023-02-02T06:55:07.724Z,101737.84
2023-02-02T06:56:14.122Z,101733.41
2023-02-02T06:57:15.904Z,101738.72
2023-02-02T06:58:19.576Z,101742.22
2023-02-02T06:59:24.582Z,101744.88
2023-02-02T07:00:28.766Z,101740.44
2023-02-02T07:01:32.653Z,101741.28
2023-02-02T07:02:35.667Z,101746.56
2023-02-02T07:03:38.232Z,101745.72
2023-02-02T07:04:40.927Z,101742.22
2023-02-02T07:05:42.544Z,101751.00
2023-02-02T07:06:45.179Z,101754.59
2023-02-02T07:07:46.795Z,101755.44
2023-02-02T07:08:57.637Z,101749.28
2023-02-02T07:10:05.548Z,101752.97
2023-02-02T07:11:09.353Z,101752.03
2023-02-02T07:12:19.265Z,101752.97
2023-02-02T07:13:21.649Z,101758.25
2023-02-02T07:14:25.507Z,101756.47
2023-02-02T07:15:27.154Z,101759.19
2023-02-02T07:16:29.754Z,101754.69
2023-02-02T07:17:31.353Z,101752.91
2023-02-02T07:18:33.850Z,101759.03
2023-02-02T07:19:35.563Z,101752.03
2023-02-02T07:20:38.077Z,101754.69
2023-02-02T07:21:39.830Z,101752.03
2023-02-02T07:22:42.942Z,101748.44
2023-02-02T07:23:44.512Z,101753.66
2023-02-02T07:24:47.047Z,101749.41
2023-02-02T07:25:48.594Z,101752.03
2023-02-02T07:26:51.164Z,101759.97
2023-02-02T07:27:53.405Z,101756.47
2023-02-02T07:28:56.573Z,101761.78
2023-02-02T07:29:59.436Z,101758.25
2023-02-02T07:31:02.641Z,101763.47
2023-02-02T07:32:04.641Z,101766.19
2023-02-02T07:33:07.165Z,101759.19
2023-02-02T07:34:10.520Z,101766.19
2023-02-02T07:35:12.975Z,101762.63
2023-02-02T07:36:17.403Z,101766.19
2023-02-02T07:37:19.027Z,101763.56
2023-02-02T07:38:22.601Z,101756.47
2023-02-02T07:39:24.264Z,101762.63
2023-02-02T07:40:26.952Z,101761.66
2023-02-02T07:41:28.489Z,101766.94
2023-02-02T07:42:31.019Z,101766.94
2023-02-02T07:43:34.341Z,101768.78
2023-02-02T07:44:36.892Z,101762.63
2023-02-02T07:45:40.392Z,101761.66
2023-02-02T07:46:43.474Z,101772.25
2023-02-02T07:47:45.015Z,101768.78
2023-02-02T07:48:48.644Z,101767.81
2023-02-02T07:49:50.321Z,101766.94
2023-02-02T07:50:53.486Z,101761.66
2023-02-02T07:51:56.376Z,101762.63
2023-02-02T07:52:59.105Z,101767.91
2023-02-02T07:54:02.255Z,101768.78
2023-02-02T07:55:14.531Z,101776.72
2023-02-02T07:56:19.655Z,101764.31
2023-02-02T07:57:21.189Z,101765.28
2023-02-02T07:58:23.717Z,101772.34
2023-02-02T07:59:25.527Z,101766.19
2023-02-02T08:00:29.438Z,101769.78
2023-02-02T08:01:34.996Z,101773.38
2023-02-02T08:02:38.834Z,101765.44
2023-02-02T08:03:42.766Z,101768.16
2023-02-02T08:04:44.412Z,101769.09
2023-02-02T08:05:46.925Z,101764.75
2023-02-02T08:06:49.430Z,101769.09
2023-02-02T08:07:51.065Z,101768.25
2023-02-02T08:08:53.555Z,101771.91
2023-02-02T08:09:55.063Z,101776.34
2023-02-02T08:10:57.590Z,101777.28
2023-02-02T08:12:01.628Z,101778.16
2023-02-02T08:13:04.859Z,101782.59
2023-02-02T08:14:13.077Z,101775.56
2023-02-02T08:15:16.051Z,101780.88
2023-02-02T08:16:19.512Z,101782.75
2023-02-02T08:17:23.877Z,101788.06
2023-02-02T08:18:26.492Z,101786.34
2023-02-02T08:19:28.980Z,101784.72
2023-02-02T08:20:31.735Z,101786.50
2023-02-02T08:21:35.165Z,101788.38
2023-02-02T08:22:39.182Z,101784.97
2023-02-02T08:23:43.114Z,101783.25
2023-02-02T08:24:46.642Z,101783.25
2023-02-02T08:25:48.801Z,101792.13
2023-02-02T08:26:52.190Z,101787.69
2023-02-02T08:28:05.966Z,101788.53
2023-02-02T08:29:10.024Z,101793.81
2023-02-02T08:30:12.753Z,101795.63
2023-02-02T08:31:18.778Z,101797.41
2023-02-02T08:32:22.653Z,101793.81
2023-02-02T08:33:24.432Z,101792.88
2023-02-02T08:34:26.957Z,101796.38
2023-02-02T08:35:28.619Z,101795.53
2023-02-02T08:36:31.930Z,101795.53
2023-02-02T08:37:33.453Z,101798.97
2023-02-02T08:38:36.235Z,101801.59
2023-02-02T08:39:38.901Z,101801.59
2023-02-02T08:40:41.431Z,101805.00
2023-02-02T08:41:45.217Z,101806.72
2023-02-02T08:42:47.499Z,101812.03
2023-02-02T08:43:50.830Z,101811.06
2023-02-02T08:46:04.383Z,101813.72
2023-02-02T08:46:18.803Z,101809.38
2023-02-02T08:47:23.398Z,101808.50
2023-02-02T08:48:25.091Z,101816.44
2023-02-02T08:49:27.868Z,101817.31
2023-02-02T08:50:30.351Z,101814.66
2023-02-02T08:51:32.893Z,101819.09
2023-02-02T08:52:35.413Z,101812.94
2023-02-02T08:53:36.965Z,101814.56
2023-02-02T08:54:39.521Z,101811.91
2023-02-02T08:55:41.031Z,101815.41
2023-02-02T08:56:43.675Z,101816.19
2023-02-02T08:57:45.257Z,101816.19
2023-02-02T08:58:49.192Z,101816.19
2023-02-02T08:59:51.368Z,101815.25
2023-02-02T09:00:55.355Z,101813.53
2023-02-02T09:01:57.959Z,101813.53
2023-02-02T09:03:00.859Z,101825.84
2023-02-02T09:04:05.476Z,101825.75
2023-02-02T09:05:07.641Z,101824.03
2023-02-02T09:06:12.139Z,101824.81
2023-02-02T09:07:16.076Z,101828.41
2023-02-02T09:08:18.905Z,101829.34
2023-02-02T09:09:23.942Z,101834.63
2023-02-02T09:10:25.868Z,101828.47
2023-02-02T09:11:31.389Z,101829.34
2023-02-02T09:12:34.207Z,101828.47
2023-02-02T09:13:40.354Z,101836.34
2023-02-02T09:14:42.888Z,101836.34
2023-02-02T09:15:52.743Z,101842.47
2023-02-02T09:16:55.342Z,101840.78
2023-02-02T09:17:57.155Z,101842.47
2023-02-02T09:19:01.010Z,101851.25
2023-02-02T09:20:04.615Z,101849.47
2023-02-02T09:21:09.574Z,101855.69
2023-02-02T09:22:12.048Z,101858.31
2023-02-02T09:23:13.585Z,101861.94
2023-02-02T09:24:16.135Z,101859.28
2023-02-02T09:25:17.659Z,101857.50
2023-02-02T09:26:22.141Z,101868.91
2023-02-02T09:27:25.440Z,101868.91
2023-02-02T09:28:28.416Z,101873.28
2023-02-02T09:29:30.939Z,101866.19
2023-02-02T09:30:33.426Z,101874.06
2023-02-02T09:31:37.719Z,101874.06
2023-02-02T09:32:41.202Z,101885.47
2023-02-02T09:33:44.424Z,101873.09
2023-02-02T09:34:48.523Z,101882.75
2023-02-02T09:35:50.031Z,101883.63
2023-02-02T09:36:54.165Z,101879.19
2023-02-02T09:37:56.691Z,101885.31
2023-02-02T09:38:59.230Z,101886.16
2023-02-02T09:40:01.817Z,101886.16
2023-02-02T09:41:24.754Z,101899.38
2023-02-02T09:42:40.721Z,101903.81
2023-02-02T09:44:01.147Z,101898.63
2023-02-02T09:45:14.477Z,101903.91
2023-02-02T09:46:28.566Z,101900.50
2023-02-02T09:47:51.590Z,101904.09
2023-02-02T09:49:01.127Z,101905.88
2023-02-02T09:50:12.163Z,101907.66
2023-02-02T09:51:18.705Z,101905.94
2023-02-02T09:52:25.931Z,101912.94
2023-02-02T09:53:46.036Z,101915.53
2023-02-02T09:55:01.457Z,101907.47
2023-02-02T09:56:10.471Z,101918.06
2023-02-02T09:57:18.824Z,101919.78
2023-02-02T09:58:25.119Z,101920.66
2023-02-02T09:59:31.869Z,101932.91
2023-02-02T10:00:38.297Z,101927.56
2023-02-02T10:01:44.766Z,101930.13
2023-02-02T10:02:49.923Z,101923.88
2023-02-02T10:04:01.607Z,101930.03
2023-02-02T10:05:14.525Z,101937.03
2023-02-02T10:06:31.627Z,101939.69
2023-02-02T10:07:38.414Z,101939.59
2023-02-02T10:08:46.724Z,101944.88
2023-02-02T10:09:54.722Z,101938.66
2023-02-02T10:10:57.265Z,101940.44
2023-02-02T10:12:06.901Z,101935.16
2023-02-02T10:13:16.500Z,101930.72
2023-02-02T10:14:25.075Z,101931.59
2023-02-02T10:15:35.965Z,101932.50
2023-02-02T10:16:40.551Z,101943.03
2023-02-02T10:17:48.693Z,101937.75
2023-02-02T10:18:57.294Z,101938.59
2023-02-02T10:20:05.932Z,101942.94
2023-02-02T10:21:30.023Z,101940.22
2023-02-02T10:22:35.352Z,101945.50
2023-02-02T10:23:47.874Z,101955.06
2023-02-02T10:24:51.840Z,101954.13
2023-02-02T10:26:03.111Z,101958.41
2023-02-02T10:27:09.780Z,101961.91
2023-02-02T10:28:19.444Z,101966.25
2023-02-02T10:29:48.097Z,101956.44
2023-02-02T10:31:00.297Z,101955.44
2023-02-02T10:32:12.762Z,101957.03
2023-02-02T10:33:28.644Z,101959.69
2023-02-02T10:34:37.079Z,101956.97
2023-02-02T10:35:46.299Z,101960.47
2023-02-02T10:37:03.559Z,101961.16
2023-02-02T10:38:18.299Z,101962.00
2023-02-02T10:39:33.391Z,101957.41
2023-02-02T10:40:48.517Z,101954.69
2023-02-02T10:42:05.776Z,101962.53
2023-02-02T10:43:45.874Z,101959.88
2023-02-02T10:44:51.910Z,101958.94
2023-02-02T10:45:54.625Z,101967.75
2023-02-02T10:47:01.407Z,101963.31
2023-02-02T10:48:05.664Z,101960.56
2023-02-02T10:49:19.041Z,101956.13
2023-02-02T10:50:23.583Z,101959.63
2023-02-02T10:51:28.871Z,101957.75
2023-02-02T10:52:36.836Z,101956.81
2023-02-02T10:53:38.790Z,101966.47
2023-02-02T10:54:57.214Z,101964.75
2023-02-02T10:56:05.872Z,101957.75
2023-02-02T10:57:13.456Z,101961.25
2023-02-02T10:58:25.193Z,101960.31
2023-02-02T10:59:32.998Z,101962.13
2023-02-02T11:00:42.191Z,101961.19
2023-02-02T11:01:54.933Z,101965.63
2023-02-02T11:02:58.879Z,101963.84
2023-02-02T11:04:19.236Z,101970.06
2023-02-02T11:05:41.362Z,101970.06
2023-02-02T11:06:53.251Z,101967.41
2023-02-02T11:07:57.624Z,101963.91
2023-02-02T11:09:01.127Z,101972.69
2023-02-02T11:10:02.853Z,101980.66
2023-02-02T11:11:13.276Z,101967.34
2023-02-02T11:12:24.799Z,101968.16
2023-02-02T11:13:30.435Z,101976.03
2023-02-02T11:14:45.486Z,101968.03
2023-02-02T11:15:48.475Z,101974.16
2023-02-02T11:17:02.396Z,101975.88
2023-02-02T11:18:16.281Z,101968.97
2023-02-02T11:19:24.584Z,101968.03
2023-02-02T11:20:34.320Z,101969.72
2023-02-02T11:21:38.487Z,101972.34
2023-02-02T11:22:41.055Z,101973.22
2023-02-02T11:23:52.786Z,101971.44
2023-02-02T11:24:56.466Z,101981.00
2023-02-02T11:26:01.650Z,101976.56
2023-02-02T11:27:07.872Z,101975.63
2023-02-02T11:28:19.721Z,101974.66
2023-02-02T11:29:27.827Z,101979.03
2023-02-02T11:30:34.054Z,101981.69
2023-02-02T11:31:46.807Z,101983.41
2023-02-02T11:32:50.777Z,101983.47
2023-02-02T11:33:52.456Z,101973.75
2023-02-02T11:35:18.633Z,101976.38
2023-02-02T11:36:22.767Z,101979.97
2023-02-02T11:37:37.314Z,101976.38
2023-02-02T11:38:41.453Z,101972.81
2023-02-02T11:39:44.465Z,101969.19
2023-02-02T11:40:53.460Z,101970.06
2023-02-02T11:42:07.666Z,101970.91
2023-02-02T11:43:19.828Z,101970.00
2023-02-02T11:44:26.410Z,101968.09
2023-02-02T11:45:35.202Z,101969.81
2023-02-02T11:46:39.696Z,101968.88
2023-02-02T11:47:42.287Z,101965.28
2023-02-02T11:48:53.731Z,101966.13
2023-02-02T11:49:57.856Z,101959.97
2023-02-02T11:51:03.711Z,101962.72
2023-02-02T11:52:15.689Z,101963.59
2023-02-02T11:53:24.872Z,101957.50
2023-02-02T11:54:30.261Z,101956.56
2023-02-02T11:55:45.204Z,101953.94
2023-02-02T11:56:52.707Z,101954.69
2023-02-02T11:58:20.247Z,101958.97
2023-02-02T11:59:34.507Z,101957.16
2023-02-02T12:00:46.954Z,101957.09
2023-02-02T12:01:49.479Z,101957.94
2023-02-02T12:02:51.001Z,101953.41
2023-02-02T12:03:54.527Z,101957.69
2023-02-02T12:05:13.708Z,101952.13
2023-02-02T12:06:21.230Z,101952.84
2023-02-02T12:07:28.462Z,101946.50
2023-02-02T12:08:31.656Z,101950.78
2023-02-02T12:09:34.549Z,101957.78
2023-02-02T12:10:43.108Z,101965.66
2023-02-02T12:12:00.047Z,101962.06
2023-02-02T12:13:08.465Z,101958.47
2023-02-02T12:14:24.679Z,101961.13
2023-02-02T12:15:43.594Z,101957.63
2023-02-02T12:17:12.208Z,101955.91
2023-02-02T12:18:31.574Z,101944.47
2023-02-02T12:20:02.499Z,101947.13
2023-02-02T12:21:22.432Z,101950.69
2023-02-02T12:22:39.815Z,101958.66
2023-02-02T12:23:54.348Z,101960.38
2023-02-02T12:25:01.536Z,101958.66
2023-02-02T12:26:15.766Z,101962.06
2023-02-02T12:27:31.318Z,101965.75
2023-02-02T12:28:50.168Z,101954.28